Time;durP1;ratioP1;P1;durP2;ratioP2;P2;SDS_P1;SDS_P2;PMS_P1;PMS_P2;Temp;Humidity;BMP_temperature;BMP_pressure;BME280_temperature;BME280_humidity;BME280_pressure;Samples;Min_cycle;Max_cycle;Signal;HPM_P1;HPM_P2
2021/09/10 16:03:32;;;;;;;7.13;3.50;;;;;;;;;;5036453;27;20411;-70
2021/09/10 16:05:58;;;;;;;7.55;3.03;;;26.70;62.10;;;;;;4959833;28;61205;-57
2021/09/10 16:08:23;;;;;;;6.90;3.20;;;26.80;61.50;;;;;;4891917;28;20491;-61
2021/09/10 16:10:50;;;;;;;6.38;2.80;;;27.20;62.10;;;;;;5044479;28;20470;-60
2021/09/10 16:13:16;;;;;;;6.38;3.28;;;26.40;61.00;;;;;;5019249;28;20797;-61
2021/09/10 16:15:42;;;;;;;4.55;3.15;;;25.80;62.70;;;;;;5062921;28;20042;-59
2021/09/10 16:18:07;;;;;;;5.68;2.88;;;25.40;63.60;;;;;;5064067;28;20028;-61
2021/09/10 16:20:33;;;;;;;13.27;3.88;;;25.30;64.30;;;;;;5049826;28;20036;-59
2021/09/10 16:22:58;;;;;;;7.78;3.40;;;25.10;65.00;;;;;;5067168;28;20071;-61
2021/09/10 16:25:24;;;;;;;4.22;3.13;;;25.00;65.30;;;;;;5067755;28;20067;-60
2021/09/10 16:27:50;;;;;;;5.47;3.08;;;24.90;65.40;;;;;;5067809;28;20024;-61
2021/09/10 16:30:15;;;;;;;5.70;2.72;;;24.90;65.60;;;;;;5048578;28;20402;-63
2021/09/10 16:32:41;;;;;;;4.38;2.80;;;24.90;65.80;;;;;;5067495;28;20040;-61
2021/09/10 16:35:08;;;;;;;5.22;3.22;;;24.90;65.80;;;;;;5067295;28;20028;-62
2021/09/10 16:37:34;;;;;;;4.00;2.83;;;24.90;65.80;;;;;;5066750;28;20112;-61
2021/09/10 16:39:59;;;;;;;7.22;3.35;;;24.90;66.00;;;;;;5067510;28;20108;-58
2021/09/10 16:42:26;;;;;;;4.25;2.53;;;24.90;66.20;;;;;;5066883;28;20544;-59
2021/09/10 16:44:52;;;;;;;8.15;3.28;;;24.80;66.20;;;;;;5067702;28;20025;-60
2021/09/10 16:47:17;;;;;;;4.82;2.97;;;24.80;66.30;;;;;;5067645;28;20023;-57
2021/09/10 16:49:43;;;;;;;4.43;3.05;;;24.80;66.20;;;;;;5067273;28;20024;-57
2021/09/10 16:52:08;;;;;;;4.72;2.83;;;24.70;66.50;;;;;;5067553;28;20993;-58
2021/09/10 16:54:34;;;;;;;4.70;2.53;;;24.70;66.40;;;;;;5062039;28;20063;-57
2021/09/10 16:57:02;;;;;;;5.03;3.10;;;24.70;66.40;;;;;;5066635;28;20071;-58
2021/09/10 16:59:28;;;;;;;3.88;2.70;;;24.70;66.30;;;;;;5067798;28;20025;-56
2021/09/10 17:01:55;;;;;;;6.18;3.20;;;24.60;66.30;;;;;;5065789;28;20045;-58
2021/09/10 17:04:20;;;;;;;5.38;2.70;;;24.60;66.30;;;;;;5066956;28;20039;-57
2021/09/10 17:06:46;;;;;;;4.05;2.95;;;24.60;66.20;;;;;;5067625;28;20029;-57
2021/09/10 17:09:12;;;;;;;4.85;2.70;;;24.60;66.10;;;;;;5066098;28;20048;-57
2021/09/10 17:11:37;;;;;;;3.45;2.55;;;24.60;66.30;;;;;;5066926;28;20025;-57
2021/09/10 17:14:03;;;;;;;6.38;2.85;;;24.60;66.20;;;;;;5041400;28;20037;-57
2021/09/10 17:16:28;;;;;;;6.15;3.00;;;24.60;66.30;;;;;;5051001;28;20107;-56
2021/09/10 17:18:54;;;;;;;7.00;3.03;;;24.60;66.30;;;;;;5053960;28;20036;-56
2021/09/10 17:21:20;;;;;;;5.40;2.85;;;24.50;66.40;;;;;;5052474;28;20076;-58
2021/09/10 17:23:45;;;;;;;7.03;2.88;;;24.50;66.40;;;;;;5036767;28;20029;-57
2021/09/10 17:26:11;;;;;;;4.25;2.88;;;24.50;66.40;;;;;;5037408;28;20035;-59
2021/09/10 17:28:37;;;;;;;5.65;2.65;;;24.50;66.50;;;;;;5052150;28;20031;-59
2021/09/10 17:31:02;;;;;;;5.03;2.60;;;24.50;66.50;;;;;;5054177;28;20522;-57
2021/09/10 17:33:28;;;;;;;3.78;2.55;;;24.50;66.30;;;;;;5054330;28;20021;-59
2021/09/10 17:35:53;;;;;;;3.65;2.58;;;24.50;66.40;;;;;;5053778;28;20466;-58
2021/09/10 17:38:19;;;;;;;3.55;2.50;;;24.50;66.40;;;;;;5040667;28;20127;-58
2021/09/10 17:40:45;;;;;;;3.33;2.60;;;24.50;66.40;;;;;;5033253;28;20037;-59
2021/09/10 17:43:10;;;;;;;4.53;3.00;;;24.40;66.40;;;;;;5034016;28;20033;-58
2021/09/10 17:45:36;;;;;;;3.88;2.60;;;24.40;66.50;;;;;;5034032;28;20498;-59
2021/09/10 17:48:01;;;;;;;4.97;2.70;;;24.40;66.40;;;;;;5033682;28;20156;-59
2021/09/10 17:50:27;;;;;;;5.43;2.85;;;24.40;66.40;;;;;;5034252;28;20114;-59
2021/09/10 17:52:52;;;;;;;4.25;2.58;;;24.40;66.40;;;;;;5033896;28;20041;-58
2021/09/10 17:55:18;;;;;;;4.38;2.90;;;24.40;66.40;;;;;;5033541;28;20029;-58
2021/09/10 17:57:44;;;;;;;4.28;2.40;;;24.40;66.40;;;;;;5034379;28;20034;-58
2021/09/10 18:00:10;;;;;;;3.20;2.50;;;24.40;66.30;;;;;;5040656;28;20028;-58
2021/09/10 18:02:36;;;;;;;4.25;2.50;;;24.40;66.30;;;;;;5051490;28;20222;-60
2021/09/10 18:05:02;;;;;;;3.17;2.20;;;24.40;66.50;;;;;;5052837;28;20104;-60
2021/09/10 18:07:28;;;;;;;4.07;2.60;;;24.40;67.10;;;;;;5053096;28;20021;-60
2021/09/10 18:09:53;;;;;;;4.15;2.30;;;24.40;66.30;;;;;;5034865;28;20040;-61
2021/09/10 18:12:19;;;;;;;5.00;2.65;;;24.40;66.40;;;;;;5053058;28;20040;-60
2021/09/10 18:14:45;;;;;;;3.63;2.40;;;24.30;66.30;;;;;;5052753;28;20127;-61
2021/09/10 18:17:10;;;;;;;4.57;2.50;;;24.40;66.40;;;;;;5038519;28;20029;-61
2021/09/10 18:19:36;;;;;;;5.60;2.80;;;24.30;66.50;;;;;;5033945;28;20037;-64
2021/09/10 18:22:01;;;;;;;5.32;3.10;;;24.30;66.40;;;;;;5032323;28;20052;-59
2021/09/10 18:24:27;;;;;;;4.13;2.45;;;24.30;66.40;;;;;;5033496;28;20029;-62
2021/09/10 18:26:52;;;;;;;4.60;2.40;;;24.30;66.40;;;;;;5033515;28;20075;-60
2021/09/10 18:29:18;;;;;;;5.45;2.63;;;24.30;66.50;;;;;;5031104;28;20025;-59
2021/09/10 18:31:44;;;;;;;4.25;2.33;;;24.20;66.50;;;;;;5033572;28;20033;-61
2021/09/10 18:34:09;;;;;;;4.13;2.40;;;24.20;66.60;;;;;;5033689;28;20033;-62
2021/09/10 18:36:35;;;;;;;4.68;2.33;;;24.20;66.50;;;;;;5032760;28;20025;-59
2021/09/10 18:39:00;;;;;;;3.55;2.53;;;24.30;66.60;;;;;;5033058;28;20033;-61
2021/09/10 18:41:26;;;;;;;3.97;2.30;;;24.20;66.60;;;;;;5031986;28;20030;-58
2021/09/10 18:43:52;;;;;;;5.47;2.58;;;24.20;66.60;;;;;;5052416;28;20056;-59
2021/09/10 18:46:17;;;;;;;3.63;2.55;;;24.20;66.70;;;;;;5052088;28;20025;-59
2021/09/10 18:48:43;;;;;;;4.07;2.08;;;24.20;67.00;;;;;;5051692;28;20024;-60
2021/09/10 18:51:09;;;;;;;4.97;2.20;;;24.20;67.00;;;;;;5053130;28;20029;-61
2021/09/10 18:53:35;;;;;;;6.65;3.13;;;24.20;67.10;;;;;;5052604;28;20056;-60
2021/09/10 18:56:00;;;;;;;4.22;2.08;;;24.20;66.90;;;;;;5052421;28;20086;-58
2021/09/10 18:58:26;;;;;;;4.90;2.60;;;24.20;66.80;;;;;;5053075;28;20025;-62
2021/09/10 19:00:51;;;;;;;3.85;2.40;;;24.20;66.80;;;;;;5052439;28;20037;-58
2021/09/10 19:03:17;;;;;;;5.22;2.72;;;24.20;66.90;;;;;;5051793;28;20049;-60
2021/09/10 19:05:42;;;;;;;6.05;2.15;;;24.20;67.00;;;;;;5052932;28;20107;-59
2021/09/10 19:08:08;;;;;;;4.22;2.35;;;24.20;66.90;;;;;;5051654;28;20447;-60
2021/09/10 19:10:34;;;;;;;4.90;2.15;;;24.30;66.70;;;;;;5041082;28;20052;-61
2021/09/10 19:12:59;;;;;;;4.22;2.55;;;24.30;66.80;;;;;;4854851;28;20048;-59
2021/09/10 19:16:37;;;;;;;4.57;2.40;;;24.30;66.80;;;;;;6215544;27;20638;-61
2021/09/10 19:19:38;;;;;;;4.00;2.42;;;24.30;66.60;;;;;;6243036;28;20033;-60
2021/09/10 19:22:38;;;;;;;4.70;2.50;;;24.30;66.50;;;;;;6241048;28;20104;-61
2021/09/10 19:25:39;;;;;;;3.45;1.90;;;24.20;66.20;;;;;;6088133;28;60149;-60
2021/09/10 19:28:40;;;;;;;5.80;2.33;;;24.20;66.50;;;;;;6215138;28;20025;-63
2021/09/10 19:31:40;;;;;;;4.95;2.40;;;24.30;66.70;;;;;;6218819;28;20049;-63
2021/09/10 19:34:41;;;;;;;3.40;2.30;;;24.20;66.70;;;;;;6217646;28;20026;-60
2021/09/10 19:37:41;;;;;;;5.55;2.30;;;24.20;66.70;;;;;;6218612;28;20030;-61
2021/09/10 19:40:42;;;;;;;3.40;2.20;;;24.20;66.80;;;;;;6218292;28;20026;-61
2021/09/10 19:43:43;;;;;;;5.03;2.35;;;24.10;67.00;;;;;;6217565;28;20061;-62
2021/09/10 19:46:43;;;;;;;7.22;3.03;;;24.20;67.20;;;;;;6218985;28;20077;-61
2021/09/10 19:49:44;;;;;;;4.80;2.58;;;24.10;67.40;;;;;;6217399;28;20125;-66
2021/09/10 19:52:45;;;;;;;5.88;2.25;;;24.10;68.20;;;;;;6216266;28;20077;-63
2021/09/10 19:55:45;;;;;;;5.53;2.63;;;24.10;67.60;;;;;;6217039;28;20026;-64
2021/09/10 19:58:47;;;;;;;4.68;2.65;;;24.10;67.80;;;;;;6217253;28;20026;-64
2021/09/10 20:01:47;;;;;;;5.18;2.20;;;24.10;67.80;;;;;;6216065;28;20045;-62
2021/09/10 20:04:48;;;;;;;5.45;2.40;;;24.10;67.90;;;;;;6217830;28;20030;-61
2021/09/10 20:07:49;;;;;;;4.80;2.42;;;24.10;68.10;;;;;;6217959;28;20030;-61
2021/09/10 20:10:50;;;;;;;5.55;3.13;;;24.10;68.30;;;;;;6205743;28;20092;-64
2021/09/10 20:13:50;;;;;;;3.88;2.22;;;24.20;68.20;;;;;;6211149;28;20042;-63
2021/09/10 20:16:51;;;;;;;6.07;2.60;;;24.20;68.10;;;;;;6239775;28;20037;-63
2021/09/10 20:19:51;;;;;;;4.00;2.03;;;24.20;68.10;;;;;;6241770;28;20034;-61
